Time;durP1;ratioP1;P1;durP2;ratioP2;P2;SDS_P1;SDS_P2;PMS_P1;PMS_P2;Temp;Humidity;BMP_temperature;BMP_pressure;BME280_temperature;BME280_humidity;BME280_pressure;Samples;Min_cycle;Max_cycle;Signal;HPM_P1;HPM_P2
2022/04/16 00:01:10;;;;;;;8.40;7.60;;;12.70;94.60;;;;;;4991847;28;20459;-84
2022/04/16 00:04:16;;;;;;;8.73;7.93;;;12.60;95.10;;;;;;4994111;28;20456;-85
2022/04/16 00:06:43;;;;;;;8.83;7.67;;;12.60;95.00;;;;;;5003128;28;20443;-82
2022/04/16 00:09:28;;;;;;;8.77;8.03;;;12.60;95.00;;;;;;5001338;28;20517;-85
2022/04/16 00:12:04;;;;;;;8.57;7.70;;;12.60;94.90;;;;;;5001600;28;20443;-84
2022/04/16 00:14:43;;;;;;;9.77;8.87;;;12.80;94.80;;;;;;4993268;28;21144;-84
2022/04/16 00:17:10;;;;;;;9.60;8.60;;;12.60;94.80;;;;;;4996530;28;20578;-83
2022/04/16 00:19:36;;;;;;;8.80;7.90;;;12.50;95.00;;;;;;4999495;28;20461;-82
2022/04/16 00:23:01;;;;;;;;;;;;;;;;;;;;;
2022/04/16 00:25:57;;;;;;;9.17;8.30;;;12.60;94.80;;;;;;5009880;28;20518;-88
2022/04/16 00:28:27;;;;;;;8.53;7.73;;;12.50;94.50;;;;;;5006272;28;21046;-83
2022/04/16 00:31:06;;;;;;;10.13;7.70;;;12.40;94.70;;;;;;5018382;28;20447;-87
2022/04/16 00:37:34;;;;;;;9.70;8.03;;;12.30;94.70;;;;;;5027972;23;20490;-85
2022/04/16 00:40:06;;;;;;;9.40;8.60;;;12.20;95.10;;;;;;5028042;28;20484;-83
2022/04/16 00:42:45;;;;;;;9.27;8.47;;;12.20;95.40;;;;;;5015031;28;20513;-84
2022/04/16 00:45:13;;;;;;;9.13;8.20;;;12.10;95.40;;;;;;4997663;28;20441;-83
2022/04/16 00:47:40;;;;;;;9.33;8.43;;;12.10;95.50;;;;;;5022863;23;20521;-83
2022/04/16 00:50:09;;;;;;;9.87;8.80;;;12.30;95.50;;;;;;5008840;28;20459;-84
2022/04/16 00:52:36;;;;;;;9.57;8.43;;;12.30;95.10;;;;;;4997123;28;20463;-86
2022/04/16 00:55:08;;;;;;;8.63;7.73;;;12.20;95.20;;;;;;5020773;28;20466;-85
2022/04/16 00:57:41;;;;;;;9.40;8.50;;;12.10;95.40;;;;;;5002722;28;20482;-84
2022/04/16 01:00:10;;;;;;;10.97;8.50;;;12.10;95.40;;;;;;5019184;28;20446;-85
2022/04/16 01:02:40;;;;;;;12.63;10.67;;;12.00;95.50;;;;;;5007630;28;20455;-85
2022/04/16 01:05:10;;;;;;;7.50;6.80;;;12.00;95.60;;;;;;5029529;28;20458;-84
2022/04/16 01:07:57;;;;;;;9.50;8.60;;;11.90;95.80;;;;;;5010935;28;20478;-85
2022/04/16 01:10:34;;;;;;;10.70;9.60;;;11.80;96.10;;;;;;5006481;28;20518;-88
2022/04/16 01:13:04;;;;;;;11.00;8.63;;;11.70;96.30;;;;;;5009963;28;20455;-85
2022/04/16 01:15:33;;;;;;;10.00;9.00;;;11.80;96.60;;;;;;5010066;28;20460;-83
2022/04/16 01:18:15;;;;;;;9.57;8.67;;;11.80;96.60;;;;;;5010887;28;20490;-85
2022/04/16 01:21:07;;;;;;;9.33;8.43;;;11.70;96.40;;;;;;5015441;28;20457;-86
2022/04/16 01:23:39;;;;;;;15.80;9.93;;;11.70;96.60;;;;;;5003711;28;20469;-83
2022/04/16 01:26:29;;;;;;;9.57;8.13;;;11.70;96.30;;;;;;5016396;28;20458;-84
2022/04/16 01:29:13;;;;;;;9.33;8.43;;;11.60;96.60;;;;;;5036285;23;20489;-87
2022/04/16 01:32:03;;;;;;;9.93;8.80;;;11.60;96.90;;;;;;5041247;28;20445;-87
2022/04/16 01:34:38;;;;;;;9.67;8.77;;;11.50;97.00;;;;;;5041411;28;20457;-85
2022/04/16 01:37:47;;;;;;;10.03;8.90;;;11.60;97.40;;;;;;5034809;28;20473;-85
2022/04/16 01:40:15;;;;;;;8.87;7.97;;;11.70;96.80;;;;;;5011326;28;20457;-83
2022/04/16 01:43:29;;;;;;;9.20;8.30;;;11.60;97.10;;;;;;5015777;28;20459;-86
2022/04/16 01:46:13;;;;;;;;;;;;;;;;;;;;;
2022/04/16 01:49:16;;;;;;;9.23;8.33;;;11.70;97.20;;;;;;5029602;28;20502;-84
2022/04/16 01:51:57;;;;;;;11.47;8.37;;;11.70;96.90;;;;;;5001821;28;20451;-84
2022/04/16 01:54:48;;;;;;;10.47;9.37;;;11.70;96.90;;;;;;4941507;29;20454;-85
2022/04/16 01:57:20;;;;;;;10.23;8.73;;;11.70;96.70;;;;;;4950209;29;20494;-85
2022/04/16 02:00:14;;;;;;;9.20;8.30;;;11.70;96.80;;;;;;4930961;29;20485;-83
2022/04/16 02:02:55;;;;;;;10.37;8.40;;;11.70;96.70;;;;;;4938432;29;20454;-86
2022/04/16 02:05:22;;;;;;;8.87;8.10;;;11.70;97.00;;;;;;4961238;29;20457;-84
2022/04/16 02:08:04;;;;;;;;;;;;;;;;;;;;;
2022/04/16 02:10:54;;;;;;;11.90;9.43;;;11.60;97.20;;;;;;4943043;29;20526;-86
2022/04/16 02:13:24;;;;;;;10.40;8.50;;;11.60;97.20;;;;;;5002628;28;20446;-84
2022/04/16 02:16:07;;;;;;;9.53;8.63;;;11.60;97.10;;;;;;5012333;28;20430;-85
2022/04/16 02:18:45;;;;;;;9.77;8.77;;;11.70;97.00;;;;;;5014309;28;20486;-85
2022/04/16 02:21:40;;;;;;;11.57;10.37;;;11.70;96.90;;;;;;5016573;28;20464;-83
2022/04/16 02:24:17;;;;;;;11.17;9.03;;;11.60;97.00;;;;;;5001263;28;20454;-83
2022/04/16 02:26:44;;;;;;;9.37;8.43;;;11.70;97.00;;;;;;5001661;28;20454;-84
2022/04/16 02:29:14;;;;;;;10.13;9.20;;;11.50;97.00;;;;;;5001236;28;20478;-84
2022/04/16 02:31:47;;;;;;;9.37;8.43;;;11.60;96.80;;;;;;5034165;28;20497;-84
2022/04/16 02:34:33;;;;;;;9.33;8.33;;;11.50;96.90;;;;;;5022062;28;20518;-82
2022/04/16 02:37:04;;;;;;;9.23;8.33;;;11.50;97.20;;;;;;5018719;28;20462;-85
2022/04/16 02:39:35;;;;;;;12.70;9.20;;;11.50;97.10;;;;;;5021182;28;20455;-86
2022/04/16 02:42:08;;;;;;;10.00;9.00;;;11.60;97.30;;;;;;5017224;28;20439;-83
2022/04/16 02:47:30;;;;;;;10.57;8.93;;;11.50;97.40;;;;;;5017386;28;20492;-82
2022/04/16 02:50:08;;;;;;;10.03;9.10;;;11.60;97.20;;;;;;5005241;28;20466;-84
2022/04/16 02:52:38;;;;;;;9.73;8.83;;;11.50;97.00;;;;;;4999425;28;20818;-84
2022/04/16 02:58:16;;;;;;;9.43;8.47;;;11.30;97.20;;;;;;5014681;28;20497;-81
2022/04/16 03:01:00;;;;;;;;;;;;;;;;;;;;;
2022/04/16 03:04:11;;;;;;;10.27;9.10;;;11.50;97.30;;;;;;5013062;28;20516;-82
2022/04/16 03:06:51;;;;;;;10.00;9.00;;;11.50;96.90;;;;;;5005671;28;20477;-85
2022/04/16 03:09:19;;;;;;;9.27;8.43;;;11.40;97.00;;;;;;5004282;28;20478;-84
2022/04/16 03:11:51;;;;;;;10.00;9.00;;;11.40;97.10;;;;;;5012433;28;20446;-84
2022/04/16 03:17:35;;;;;;;9.17;8.27;;;11.50;97.40;;;;;;5015886;28;20582;-83
2022/04/16 03:20:10;;;;;;;10.30;8.63;;;11.30;97.40;;;;;;4993907;28;20486;-83
2022/04/16 03:22:43;;;;;;;11.07;9.83;;;11.30;97.60;;;;;;5002912;28;20482;-84
2022/04/16 03:25:25;;;;;;;10.73;9.63;;;11.30;97.70;;;;;;5023595;28;20489;-84
2022/04/16 03:27:52;;;;;;;10.03;8.50;;;11.40;97.80;;;;;;5004856;28;20472;-86
2022/04/16 03:30:36;;;;;;;10.40;9.50;;;11.40;97.70;;;;;;5001607;28;20469;-84
2022/04/16 03:33:04;;;;;;;9.47;8.67;;;11.40;97.60;;;;;;4988498;28;20450;-83
2022/04/16 03:35:37;;;;;;;11.53;9.37;;;11.50;97.60;;;;;;5006183;28;20536;-83
2022/04/16 03:38:17;;;;;;;12.07;9.60;;;11.50;97.30;;;;;;5006063;28;20494;-84
2022/04/16 03:40:55;;;;;;;8.93;8.07;;;11.40;97.30;;;;;;5018916;28;20449;-86
2022/04/16 03:43:30;;;;;;;8.90;8.00;;;11.30;97.50;;;;;;5039941;28;20445;-85
2022/04/16 03:46:22;;;;;;;11.63;8.20;;;11.40;97.60;;;;;;5022185;28;20430;-87
2022/04/16 03:49:12;;;;;;;10.17;9.07;;;11.40;97.10;;;;;;5031602;28;20478;-85
2022/04/16 03:51:43;;;;;;;10.33;9.30;;;11.30;97.30;;;;;;5021651;28;20458;-83
2022/04/16 04:00:03;;;;;;;9.93;8.83;;;11.20;97.40;;;;;;5033965;28;20482;-87
2022/04/16 04:02:39;;;;;;;10.40;9.23;;;11.10;97.50;;;;;;5018160;28;20500;-87
2022/04/16 04:05:07;;;;;;;10.30;9.10;;;11.10;97.60;;;;;;5007495;28;20511;-85
2022/04/16 04:10:04;;;;;;;10.23;9.27;;;11.10;97.70;;;;;;5000744;28;20471;-87
2022/04/16 04:12:31;;;;;;;9.23;8.43;;;11.10;98.00;;;;;;4972300;28;20626;-82
2022/04/16 04:14:59;;;;;;;12.33;10.40;;;11.10;98.10;;;;;;4987416;28;20500;-86
2022/04/16 04:17:33;;;;;;;10.87;9.53;;;11.20;98.20;;;;;;4999449;28;20479;-87
2022/04/16 04:20:00;;;;;;;10.90;9.60;;;11.10;98.60;;;;;;4984434;28;20440;-87
2022/04/16 04:22:26;;;;;;;11.23;9.80;;;11.10;98.80;;;;;;4967995;28;20452;-84
2022/04/16 04:24:57;;;;;;;11.20;10.10;;;11.20;98.90;;;;;;4986095;28;20538;-85
2022/04/16 04:27:27;;;;;;;9.20;8.27;;;11.00;98.80;;;;;;4974669;28;20498;-85
2022/04/16 04:30:01;;;;;;;11.90;10.70;;;11.00;99.00;;;;;;4980538;28;20465;-84
2022/04/16 04:32:39;;;;;;;10.20;9.10;;;11.00;98.90;;;;;;4982653;28;20976;-85
2022/04/16 04:35:16;;;;;;;11.13;9.93;;;11.00;98.50;;;;;;4973940;28;20452;-82
2022/04/16 04:38:06;;;;;;;10.57;9.47;;;11.10;97.90;;;;;;4976883;28;21014;-83
2022/04/16 04:40:39;;;;;;;10.83;9.20;;;10.90;97.80;;;;;;4976732;28;20447;-84
2022/04/16 04:43:09;;;;;;;9.87;8.60;;;10.80;98.10;;;;;;4977319;28;20459;-84
2022/04/16 04:45:48;;;;;;;9.73;8.73;;;10.70;98.30;;;;;;4968626;28;20491;-83
2022/04/16 04:48:18;;;;;;;10.87;9.77;;;10.90;98.30;;;;;;4955409;28;20924;-84
2022/04/16 04:50:48;;;;;;;9.50;8.60;;;10.80;98.10;;;;;;4973361;28;20456;-83
2022/04/16 04:53:20;;;;;;;10.67;9.47;;;10.80;98.30;;;;;;4962755;28;20479;-82
2022/04/16 04:55:51;;;;;;;11.60;10.40;;;10.80;98.50;;;;;;4985969;28;20470;-84
2022/04/16 04:58:24;;;;;;;13.53;10.07;;;10.90;98.20;;;;;;4965910;28;20484;-85
2022/04/16 05:01:13;;;;;;;12.10;9.97;;;10.80;98.20;;;;;;4982342;28;20459;-85
2022/04/16 05:04:03;;;;;;;11.00;9.90;;;10.70;98.20;;;;;;4983053;28;20790;-84
2022/04/16 05:06:30;;;;;;;15.17;10.87;;;10.80;98.50;;;;;;4952248;28;20469;-84
2022/04/16 05:09:00;;;;;;;11.57;9.80;;;10.80;98.60;;;;;;4963155;28;20480;-84
2022/04/16 05:11:45;;;;;;;10.43;9.43;;;10.80;98.60;;;;;;4967033;28;20451;-85
2022/04/16 05:14:18;;;;;;;12.00;10.53;;;10.90;98.30;;;;;;4981703;28;20558;-87
2022/04/16 05:16:58;;;;;;;10.53;9.43;;;10.90;97.90;;;;;;5003607;28;20467;-86
2022/04/16 05:19:29;;;;;;;12.00;10.80;;;11.00;97.80;;;;;;4992177;28;20483;-85
2022/04/16 05:22:01;;;;;;;12.70;10.77;;;10.80;97.60;;;;;;4999211;28;20439;-87
2022/04/16 05:24:31;;;;;;;11.90;10.40;;;10.70;98.00;;;;;;4980954;28;20444;-87
2022/04/16 05:26:58;;;;;;;11.30;10.10;;;10.90;98.10;;;;;;5005054;28;20506;-86
2022/04/16 05:29:48;;;;;;;11.40;10.30;;;10.90;97.80;;;;;;4990362;28;20474;-88
2022/04/16 05:32:19;;;;;;;11.83;10.10;;;11.00;97.50;;;;;;4999653;28;20475;-84
2022/04/16 05:35:39;;;;;;;14.10;12.80;;;10.80;97.40;;;;;;4968110;28;20849;-84
2022/04/16 05:38:10;;;;;;;12.40;10.90;;;10.80;97.70;;;;;;4971174;28;20592;-86
2022/04/16 05:40:39;;;;;;;11.40;9.90;;;10.90;97.30;;;;;;4967558;28;20462;-84
2022/04/16 05:43:15;;;;;;;12.00;10.10;;;10.80;97.50;;;;;;4969949;28;20483;-85
2022/04/16 05:45:44;;;;;;;13.80;12.40;;;10.90;97.70;;;;;;4981845;28;20469;-84
2022/04/16 05:48:11;;;;;;;12.17;10.60;;;11.00;97.30;;;;;;4989928;28;20475;-85
2022/04/16 05:50:46;;;;;;;13.43;10.23;;;11.10;97.00;;;;;;4970812;28;20528;-85
2022/04/16 05:53:18;;;;;;;11.93;10.70;;;10.90;97.00;;;;;;5001990;28;20455;-85
2022/04/16 05:55:50;;;;;;;14.33;11.80;;;10.80;97.30;;;;;;4977530;28;20452;-86
2022/04/16 05:58:18;;;;;;;12.13;10.93;;;10.80;97.50;;;;;;4992948;28;20479;-86
2022/04/16 06:00:59;;;;;;;12.67;11.20;;;10.80;97.60;;;;;;4978104;28;20452;-84
2022/04/16 06:03:44;;;;;;;12.80;11.43;;;10.90;97.70;;;;;;4966808;28;20541;-84
2022/04/16 06:06:46;;;;;;;11.00;10.00;;;11.00;97.80;;;;;;4968525;28;20460;-84
2022/04/16 06:09:32;;;;;;;10.47;9.27;;;12.70;97.70;;;;;;4974273;28;20917;-85
2022/04/16 06:12:22;;;;;;;10.83;9.30;;;16.70;91.30;;;;;;4972382;28;20470;-85
2022/04/16 06:14:59;;;;;;;12.03;8.43;;;19.80;75.20;;;;;;4978958;28;20475;-87
2022/04/16 06:20:26;;;;;;;10.03;9.03;;;23.00;59.40;;;;;;4989094;28;20503;-87
2022/04/16 06:23:11;;;;;;;10.50;9.43;;;24.40;55.10;;;;;;4969653;28;20455;-86
2022/04/16 06:25:42;;;;;;;11.27;10.17;;;25.20;52.80;;;;;;4967862;28;20448;-86
2022/04/16 06:30:51;;;;;;;10.93;9.93;;;25.00;50.80;;;;;;4624066;26;20490;-87
2022/04/16 06:33:21;;;;;;;10.33;9.30;;;25.10;49.40;;;;;;5003916;28;20453;-87
2022/04/16 06:35:55;;;;;;;10.40;9.50;;;24.80;49.30;;;;;;4996002;28;20474;-88
2022/04/16 06:38:32;;;;;;;10.70;9.70;;;24.00;50.30;;;;;;5022938;28;20478;-85
2022/04/16 06:41:08;;;;;;;10.83;9.83;;;24.40;50.20;;;;;;5007236;28;20554;-85
2022/04/16 06:43:42;;;;;;;12.10;10.93;;;24.80;49.80;;;;;;5004943;28;20457;-86
2022/04/16 06:46:20;;;;;;;13.07;11.77;;;25.30;48.60;;;;;;5017485;28;20459;-85
2022/04/16 06:49:11;;;;;;;13.57;12.17;;;24.10;49.90;;;;;;5006442;28;20482;-84
2022/04/16 06:51:42;;;;;;;12.27;11.00;;;24.50;49.60;;;;;;5012459;28;20488;-84
2022/04/16 06:54:17;;;;;;;12.47;11.30;;;24.90;49.40;;;;;;4989630;28;20474;-85
2022/04/16 06:56:50;;;;;;;13.37;12.17;;;24.80;48.60;;;;;;4994521;28;20560;-84
2022/04/16 07:00:30;;;;;;;;;;;;;;;;;;;;;
2022/04/16 07:03:30;;;;;;;13.50;12.20;;;24.20;49.90;;;;;;5012242;28;20978;-85
2022/04/16 07:06:05;;;;;;;13.40;12.10;;;26.40;47.80;;;;;;5010249;28;20474;-86
2022/04/16 07:08:47;;;;;;;12.83;11.80;;;26.70;46.00;;;;;;4993046;28;20534;-85
2022/04/16 07:11:30;;;;;;;13.70;12.50;;;26.70;46.10;;;;;;5002752;28;20500;-85
2022/04/16 07:14:35;;;;;;;;;;;;;;;;;;;;;
2022/04/16 07:21:38;;;;;;;12.83;11.53;;;27.30;43.80;;;;;;4916560;29;20450;-85
2022/04/16 07:28:06;;;;;;;13.17;11.97;;;25.80;45.70;;;;;;5013486;28;20540;-86
2022/04/16 07:30:37;;;;;;;13.60;12.20;;;27.20;44.20;;;;;;5009885;28;20512;-84
2022/04/16 07:33:06;;;;;;;12.00;11.00;;;26.80;44.40;;;;;;5017015;28;20457;-84
2022/04/16 07:36:04;;;;;;;13.60;12.37;;;27.10;44.30;;;;;;4999564;28;20455;-84
2022/04/16 07:39:15;;;;;;;13.50;12.20;;;27.60;43.20;;;;;;4991029;28;20538;-86
2022/04/16 07:41:57;;;;;;;12.93;11.77;;;28.20;42.40;;;;;;5002209;28;20470;-87
2022/04/16 07:44:47;;;;;;;14.27;12.97;;;27.80;42.40;;;;;;5007646;28;20466;-89
2022/04/16 07:47:23;;;;;;;13.23;11.50;;;27.10;41.80;;;;;;5020478;28;20453;-86
2022/04/16 07:50:06;;;;;;;12.67;11.47;;;26.10;43.80;;;;;;5012917;28;20446;-88
2022/04/16 07:52:51;;;;;;;12.37;11.17;;;26.20;44.00;;;;;;5005039;28;20516;-87
2022/04/16 07:55:18;;;;;;;12.30;11.10;;;26.80;43.30;;;;;;5002514;28;20561;-82
2022/04/16 07:57:45;;;;;;;12.07;10.87;;;28.00;42.20;;;;;;5083655;22;21390;-89
2022/04/16 08:00:12;;;;;;;12.53;11.47;;;29.00;40.20;;;;;;5004327;28;20420;-89
2022/04/16 08:02:41;;;;;;;11.20;10.30;;;28.20;40.10;;;;;;5004692;28;20554;-88
2022/04/16 08:05:10;;;;;;;11.50;10.50;;;28.20;40.30;;;;;;5011897;28;20454;-85
2022/04/16 08:07:59;;;;;;;12.57;11.40;;;28.50;40.60;;;;;;4967321;28;20467;-87
2022/04/16 08:10:39;;;;;;;11.47;10.50;;;28.90;38.60;;;;;;4992344;28;20471;-85
2022/04/16 08:13:11;;;;;;;12.00;10.90;;;28.00;40.10;;;;;;4983106;28;20506;-83
2022/04/16 08:16:20;;;;;;;12.20;11.20;;;27.90;39.60;;;;;;4976851;28;20447;-83
2022/04/16 08:19:25;;;;;;;10.40;9.43;;;27.20;40.50;;;;;;4989990;28;20632;-88
2022/04/16 08:22:47;;;;;;;10.53;9.43;;;28.90;39.40;;;;;;4984372;28;20460;-83
2022/04/16 08:26:04;;;;;;;;;;;;;;;;;;;;;
2022/04/16 08:28:54;;;;;;;8.70;8.00;;;28.90;36.40;;;;;;4931684;29;20476;-85
2022/04/16 08:31:38;;;;;;;8.10;7.50;;;28.00;36.90;;;;;;4948473;29;20514;-85
2022/04/16 08:34:37;;;;;;;8.70;8.00;;;27.40;37.20;;;;;;4929335;29;20842;-85
2022/04/16 08:37:24;;;;;;;8.60;7.80;;;27.10;38.20;;;;;;4940826;29;20478;-87
2022/04/16 08:40:14;;;;;;;8.17;7.50;;;27.80;37.60;;;;;;4930751;29;20585;-85
2022/04/16 08:43:20;;;;;;;9.37;8.43;;;26.70;37.60;;;;;;4921095;29;20453;-83
2022/04/16 08:49:16;;;;;;;6.93;6.23;;;22.00;42.30;;;;;;4959219;28;20497;-86
2022/04/16 08:52:38;;;;;;;7.03;6.33;;;21.90;46.00;;;;;;4956685;29;20629;-83
2022/04/16 08:55:22;;;;;;;6.00;5.50;;;22.80;44.00;;;;;;4919484;29;20470;-86
2022/04/16 09:00:31;;;;;;;6.17;5.23;;;21.80;43.10;;;;;;4944993;28;20480;-85
2022/04/16 09:02:59;;;;;;;5.87;5.20;;;23.00;43.00;;;;;;4929919;29;20509;-84
2022/04/16 09:05:28;;;;;;;5.63;5.13;;;24.00;41.00;;;;;;4925514;29;20922;-87
2022/04/16 09:07:59;;;;;;;3.70;3.40;;;25.30;39.60;;;;;;4933461;29;20492;-86
2022/04/16 09:10:31;;;;;;;6.90;4.57;;;26.90;36.40;;;;;;4941160;29;20454;-85
2022/04/16 09:13:01;;;;;;;4.20;3.90;;;26.30;36.10;;;;;;4947283;28;20544;-84
2022/04/16 09:15:31;;;;;;;4.53;4.10;;;25.50;36.50;;;;;;4953901;28;20519;-84
2022/04/16 09:18:07;;;;;;;4.07;3.77;;;24.80;36.60;;;;;;4954964;28;20539;-87
2022/04/16 09:20:49;;;;;;;3.43;3.13;;;22.80;38.50;;;;;;4949881;28;20479;-84
2022/04/16 09:24:16;;;;;;;3.30;3.00;;;21.80;40.30;;;;;;4951508;29;20465;-85
2022/04/16 09:27:42;;;;;;;;;;;;;;;;;;;;;
2022/04/16 09:30:42;;;;;;;3.73;3.53;;;25.50;36.60;;;;;;4930138;28;20448;-84
2022/04/16 09:33:38;;;;;;;3.70;3.40;;;24.10;37.40;;;;;;4889814;29;20571;-87
2022/04/16 09:36:43;;;;;;;4.33;3.90;;;22.50;40.50;;;;;;4917028;29;20962;-86
2022/04/16 09:39:28;;;;;;;3.80;3.50;;;21.40;41.10;;;;;;4904161;29;20487;-83
2022/04/16 09:42:39;;;;;;;3.90;3.60;;;22.80;40.80;;;;;;4881071;29;20900;-82
2022/04/16 09:45:42;;;;;;;4.10;3.80;;;21.30;41.70;;;;;;4906183;29;20455;-85
2022/04/16 09:48:38;;;;;;;3.90;3.50;;;20.40;43.50;;;;;;4897655;29;20483;-84
2022/04/16 09:51:56;;;;;;;3.67;3.37;;;19.90;44.10;;;;;;4892359;29;20614;-85
2022/04/16 09:55:54;;;;;;;3.13;2.83;;;19.40;45.10;;;;;;4906364;29;20460;-85
2022/04/16 09:59:34;;;;;;;2.93;2.73;;;19.70;44.90;;;;;;4976314;23;20511;-83
2022/04/16 10:02:31;;;;;;;4.00;3.20;;;21.20;43.60;;;;;;4971729;28;20472;-81
2022/04/16 10:05:27;;;;;;;3.33;3.03;;;21.10;42.20;;;;;;4965535;28;20991;-80
2022/04/16 10:08:35;;;;;;;;;;;;;;;;;;;;;
2022/04/16 10:16:09;;;;;;;2.73;2.53;;;23.20;40.10;;;;;;4906105;29;20499;-81
2022/04/16 10:19:48;;;;;;;3.00;2.73;;;24.00;38.10;;;;;;4834691;29;20490;-82
2022/04/16 10:22:34;;;;;;;2.67;2.47;;;22.50;38.60;;;;;;4919214;28;20465;-81
2022/04/16 10:25:20;;;;;;;2.30;2.10;;;21.00;40.90;;;;;;4965814;28;21001;-80
2022/04/16 10:28:33;;;;;;;2.17;2.00;;;21.70;40.70;;;;;;4981652;28;20831;-82
2022/04/16 10:32:10;;;;;;;2.30;2.10;;;22.40;39.70;;;;;;4871738;29;20452;-83
2022/04/16 10:36:09;;;;;;;2.50;2.30;;;22.90;38.90;;;;;;4890948;29;21277;-81
2022/04/16 10:38:55;;;;;;;2.23;2.10;;;23.50;37.90;;;;;;4870319;29;20772;-80
2022/04/16 10:42:37;;;;;;;2.33;2.13;;;23.10;37.40;;;;;;4948553;28;20533;-81
2022/04/16 10:48:24;;;;;;;2.40;2.20;;;22.30;38.30;;;;;;4909893;29;20474;-79
2022/04/16 10:51:22;;;;;;;;;;;;;;;;;;;;;
2022/04/16 10:58:39;;;;;;;4.33;1.70;;;23.20;37.20;;;;;;4887528;29;20615;-81
2022/04/16 11:01:31;;;;;;;2.63;2.43;;;24.30;36.30;;;;;;4902439;28;20642;-83
2022/04/16 11:04:24;;;;;;;2.10;1.97;;;23.90;36.50;;;;;;4969913;28;20456;-83
2022/04/16 11:11:13;;;;;;;2.53;2.33;;;24.40;35.10;;;;;;4962910;28;20516;-82
2022/04/16 11:14:37;;;;;;;2.10;1.73;;;22.50;36.80;;;;;;4910496;28;20534;-79
2022/04/16 11:17:50;;;;;;;2.00;1.77;;;22.70;36.80;;;;;;4946500;28;20885;-79
2022/04/16 11:21:13;;;;;;;1.97;1.70;;;23.50;35.90;;;;;;4949326;29;20484;-81
2022/04/16 11:24:16;;;;;;;3.83;2.07;;;22.70;36.30;;;;;;4995778;28;20458;-81
2022/04/16 11:36:38;;;;;;;3.13;1.87;;;23.00;35.30;;;;;;4979367;28;20457;-81
2022/04/16 11:40:07;;;;;;;;;;;;;;;;;;;;;
2022/04/16 11:42:45;;;;;;;2.10;1.90;;;23.70;34.80;;;;;;4971274;28;20441;-80
2022/04/16 11:45:45;;;;;;;2.50;2.30;;;22.80;35.40;;;;;;4885699;29;20455;-81
2022/04/16 11:52:01;;;;;;;2.13;2.03;;;23.60;36.30;;;;;;4859330;29;20736;-82
2022/04/16 11:54:28;;;;;;;2.07;1.97;;;23.50;35.50;;;;;;4874092;29;20882;-82
2022/04/16 12:00:49;;;;;;;2.27;2.17;;;23.10;35.70;;;;;;4855096;29;20528;-81
2022/04/16 12:03:21;;;;;;;2.37;2.17;;;23.20;35.00;;;;;;4914660;28;20499;-81
2022/04/16 12:05:51;;;;;;;3.07;2.87;;;23.10;35.50;;;;;;4987073;28;20545;-80
2022/04/16 12:08:49;;;;;;;2.43;2.20;;;23.60;36.30;;;;;;4965659;28;20487;-82
2022/04/16 12:11:22;;;;;;;2.37;2.07;;;24.40;34.00;;;;;;4984647;28;20922;-80
2022/04/16 12:14:05;;;;;;;;;;;;;;;;;;;;;
2022/04/16 12:17:04;;;;;;;2.57;2.37;;;23.70;34.90;;;;;;4957743;28;20458;-82
2022/04/16 12:19:51;;;;;;;;;;;;;;;;;;;;;
2022/04/16 12:23:14;;;;;;;2.43;1.90;;;22.80;36.00;;;;;;4983530;28;20495;-82
2022/04/16 12:26:30;;;;;;;2.63;2.20;;;22.10;37.40;;;;;;4966247;28;20451;-83
2022/04/16 12:33:16;;;;;;;2.63;2.37;;;23.70;34.60;;;;;;4994560;28;20456;-81
2022/04/16 12:36:11;;;;;;;2.57;2.30;;;23.40;35.30;;;;;;4991114;28;20460;-80
2022/04/16 12:42:06;;;;;;;2.47;2.23;;;24.00;34.20;;;;;;4984551;28;20452;-81
2022/04/16 12:44:53;;;;;;;2.60;2.40;;;23.70;33.90;;;;;;4963280;28;20432;-82
2022/04/16 12:47:42;;;;;;;2.27;2.17;;;23.60;33.80;;;;;;4986288;28;20458;-81
2022/04/16 12:50:56;;;;;;;2.00;1.90;;;23.70;33.80;;;;;;4975146;28;20487;-80
2022/04/16 12:53:59;;;;;;;2.20;1.97;;;24.20;34.10;;;;;;4961914;28;20456;-81
2022/04/16 12:56:26;;;;;;;3.63;2.20;;;23.80;33.70;;;;;;4966915;28;20482;-81
2022/04/16 12:59:28;;;;;;;2.40;2.20;;;23.60;34.00;;;;;;4984739;28;20472;-81
2022/04/16 13:02:06;;;;;;;2.00;1.90;;;23.80;33.40;;;;;;4965062;28;20471;-80
2022/04/16 13:04:47;;;;;;;2.40;2.23;;;23.50;33.50;;;;;;4985823;28;20436;-80
2022/04/16 13:07:42;;;;;;;;;;;;;;;;;;;;;
2022/04/16 13:10:49;;;;;;;;;;;;;;;;;;;;;
2022/04/16 13:14:14;;;;;;;2.27;2.07;;;24.20;34.40;;;;;;4978987;28;20435;-81
2022/04/16 13:23:54;;;;;;;3.17;2.97;;;25.10;32.30;;;;;;4931540;28;20464;-79
2022/04/16 13:26:25;;;;;;;3.10;2.80;;;25.60;31.30;;;;;;4985862;28;20456;-81
2022/04/16 13:29:34;;;;;;;2.00;1.90;;;25.10;31.30;;;;;;4964932;28;20476;-79
2022/04/16 13:32:09;;;;;;;2.23;2.03;;;24.50;30.70;;;;;;4962962;28;20463;-81
2022/04/16 13:35:15;;;;;;;2.37;2.17;;;24.00;31.50;;;;;;4955529;28;20460;-81
2022/04/16 13:37:55;;;;;;;3.10;2.17;;;24.10;32.10;;;;;;4964848;28;20491;-82
2022/04/16 13:44:00;;;;;;;2.57;2.37;;;23.60;32.10;;;;;;4875186;29;20472;-81
2022/04/16 13:47:17;;;;;;;2.60;2.40;;;23.80;33.40;;;;;;4979496;28;20451;-82
2022/04/16 13:50:12;;;;;;;2.00;1.90;;;24.50;31.90;;;;;;4964899;28;21273;-81
2022/04/16 13:53:02;;;;;;;2.67;2.20;;;24.60;31.10;;;;;;4964713;28;20454;-81
2022/04/16 14:02:56;;;;;;;2.63;2.10;;;23.30;29.80;;;;;;4990678;28;20465;-83
2022/04/16 14:05:43;;;;;;;2.27;2.07;;;22.90;31.10;;;;;;4996450;28;20463;-83
2022/04/16 14:08:49;;;;;;;1.80;1.70;;;23.30;31.70;;;;;;4963645;28;20575;-79
2022/04/16 14:14:54;;;;;;;2.33;2.00;;;23.40;31.10;;;;;;4907684;29;20489;-81
2022/04/16 14:17:51;;;;;;;2.27;2.07;;;23.60;30.60;;;;;;4923110;29;20465;-81
2022/04/16 14:20:36;;;;;;;1.73;1.60;;;24.00;28.60;;;;;;4908253;29;20478;-81
2022/04/16 14:23:48;;;;;;;3.63;2.10;;;23.90;27.70;;;;;;4911193;29;20446;-81
2022/04/16 14:26:25;;;;;;;1.97;1.70;;;23.60;27.90;;;;;;4921235;29;20459;-80
2022/04/16 14:28:54;;;;;;;1.90;1.70;;;23.40;27.10;;;;;;4934380;29;20457;-80
2022/04/16 14:31:21;;;;;;;3.50;1.90;;;23.30;27.10;;;;;;4923580;29;20490;-80
2022/04/16 14:34:08;;;;;;;;;;;;;;;;;;;;;
2022/04/16 14:37:15;;;;;;;2.93;1.97;;;23.10;27.30;;;;;;4937885;29;20445;-78
2022/04/16 14:39:49;;;;;;;1.90;1.40;;;23.10;26.70;;;;;;4928631;29;20505;-81
2022/04/16 14:43:06;;;;;;;3.13;1.50;;;22.80;25.90;;;;;;4935617;29;20433;-78
2022/04/16 14:46:10;;;;;;;3.07;1.37;;;22.60;24.80;;;;;;4904321;29;20477;-80
2022/04/16 14:49:10;;;;;;;3.37;1.23;;;22.50;24.50;;;;;;4933722;29;20476;-80
2022/04/16 14:51:58;;;;;;;3.43;1.40;;;22.30;24.80;;;;;;4911476;28;20441;-79
2022/04/16 14:54:45;;;;;;;2.60;1.20;;;22.30;24.30;;;;;;4939139;29;20457;-81
2022/04/16 14:58:03;;;;;;;1.70;1.17;;;22.20;23.50;;;;;;4933796;29;20469;-80
2022/04/16 15:01:14;;;;;;;1.80;1.20;;;22.00;23.50;;;;;;4920035;29;20548;-81
2022/04/16 15:04:31;;;;;;;1.30;1.20;;;21.30;23.60;;;;;;4920419;29;20481;-79
2022/04/16 15:07:22;;;;;;;1.60;1.30;;;21.30;24.80;;;;;;4940032;29;20492;-81
2022/04/16 15:10:55;;;;;;;1.27;1.17;;;21.50;25.60;;;;;;4931573;29;20466;-78
2022/04/16 15:14:04;;;;;;;1.77;1.10;;;21.60;25.90;;;;;;4944301;28;20483;-81
2022/04/16 15:20:43;;;;;;;1.97;1.70;;;21.40;25.70;;;;;;4981236;28;20459;-80
2022/04/16 15:23:30;;;;;;;1.17;0.90;;;21.40;26.40;;;;;;4920698;29;20468;-81
2022/04/16 15:26:17;;;;;;;1.60;1.50;;;21.60;25.70;;;;;;4847286;29;20454;-80
2022/04/16 15:28:58;;;;;;;1.60;1.50;;;21.60;25.70;;;;;;4851176;29;20560;-80
2022/04/16 15:31:51;;;;;;;1.17;1.07;;;21.60;25.70;;;;;;4883427;29;20527;-82
2022/04/16 15:35:09;;;;;;;1.90;1.33;;;21.80;26.50;;;;;;4896760;29;20498;-80
2022/04/16 15:38:10;;;;;;;2.90;1.43;;;21.90;26.40;;;;;;4906869;29;20497;-81
2022/04/16 15:44:42;;;;;;;2.33;1.60;;;21.50;25.40;;;;;;4822251;29;20515;-80
2022/04/16 15:47:32;;;;;;;1.10;1.00;;;21.40;26.20;;;;;;4854799;29;20453;-82
2022/04/16 15:50:24;;;;;;;;;;;;;;;;;;;;;
2022/04/16 15:53:17;;;;;;;1.23;1.10;;;20.90;26.60;;;;;;4879025;29;20447;-79
2022/04/16 15:56:21;;;;;;;4.73;1.40;;;20.90;26.50;;;;;;4903427;29;20459;-82
2022/04/16 16:02:26;;;;;;;1.40;0.97;;;20.70;27.00;;;;;;4918564;29;20596;-81
2022/04/16 16:04:56;;;;;;;1.10;1.00;;;20.80;25.20;;;;;;4964382;28;20504;-81
2022/04/16 16:07:26;;;;;;;1.50;1.10;;;20.50;25.20;;;;;;4964264;28;20462;-82
2022/04/16 16:09:54;;;;;;;1.57;1.47;;;20.40;25.40;;;;;;4956337;28;20520;-80
2022/04/16 16:12:24;;;;;;;2.50;2.20;;;20.30;25.50;;;;;;4976890;28;20453;-83
2022/04/16 16:14:57;;;;;;;1.37;1.00;;;20.10;24.60;;;;;;4943400;28;20468;-82
2022/04/16 16:17:31;;;;;;;1.93;1.10;;;20.00;24.40;;;;;;4975773;28;20436;-82
2022/04/16 16:20:07;;;;;;;2.80;1.20;;;20.00;23.90;;;;;;4960252;29;20454;-80
2022/04/16 16:22:45;;;;;;;1.33;1.00;;;20.00;24.20;;;;;;4984201;28;20459;-81
2022/04/16 16:25:22;;;;;;;1.20;1.10;;;20.10;24.00;;;;;;4991086;28;20432;-80
2022/04/16 16:28:06;;;;;;;1.10;1.00;;;19.90;24.30;;;;;;4984119;28;20520;-80
2022/04/16 16:30:35;;;;;;;0.93;0.83;;;19.80;24.50;;;;;;5001052;28;20439;-80